createdAt,value
2018-09-11T00:01:43.237Z,100942.86
2018-09-11T00:04:11.708Z,100932.09
2018-09-11T00:06:40.893Z,100934.88
2018-09-11T00:09:11.322Z,100940.20
2018-09-11T00:11:40.062Z,100931.84
2018-09-11T00:14:08.564Z,100932.42
2018-09-11T00:16:38.086Z,100942.86
2018-09-11T00:19:06.775Z,100941.75
2018-09-11T00:21:35.821Z,100931.48
2018-09-11T00:24:04.320Z,100938.50
2018-09-11T00:26:33.056Z,100940.81
2018-09-11T00:29:02.182Z,100937.75
2018-09-11T00:31:30.744Z,100932.20
2018-09-11T00:33:59.402Z,100932.20
2018-09-11T00:36:28.002Z,100919.86
2018-09-11T00:38:57.154Z,100917.19
2018-09-11T00:41:25.779Z,100913.56
2018-09-11T00:43:54.570Z,100905.56
2018-09-11T00:46:23.221Z,100907.41
2018-09-11T00:48:52.058Z,100863.45
2018-09-11T00:51:20.566Z,100910.17
2018-09-11T00:53:49.178Z,100904.84
2018-09-11T00:56:17.678Z,100899.62
2018-09-11T00:58:46.240Z,100899.73
2018-09-11T01:01:14.806Z,100810.08
2018-09-11T01:03:43.298Z,100915.72
2018-09-11T01:06:11.858Z,100910.39
2018-09-11T01:08:40.366Z,100905.89
2018-09-11T01:11:09.150Z,100905.42
2018-09-11T01:13:37.850Z,100905.78
2018-09-11T01:16:07.794Z,100901.42
2018-09-11T01:18:36.450Z,100894.41
2018-09-11T01:21:05.233Z,100909.42
2018-09-11T01:23:33.902Z,100901.42
2018-09-11T01:26:02.518Z,100895.23
2018-09-11T01:28:31.306Z,100840.06
2018-09-11T01:31:00.498Z,100894.41
2018-09-11T01:33:29.403Z,100788.40
2018-09-11T01:35:57.954Z,100883.86
2018-09-11T01:38:26.716Z,100879.22
2018-09-11T01:40:55.337Z,100870.87
2018-09-11T01:43:23.849Z,100884.19
2018-09-11T01:45:52.366Z,100882.10
2018-09-11T01:48:20.890Z,100891.06
2018-09-11T01:50:49.546Z,100888.50
2018-09-11T01:53:18.108Z,100875.05
2018-09-11T01:55:46.807Z,100884.12
2018-09-11T01:58:15.285Z,100884.83
2018-09-11T02:00:43.837Z,100879.87
2018-09-11T02:03:12.406Z,100880.84
2018-09-11T02:05:40.974Z,100870.19
2018-09-11T02:08:09.641Z,100870.55
2018-09-11T02:10:38.134Z,100867.67
2018-09-11T02:13:06.914Z,100855.53
2018-09-11T02:15:35.448Z,100854.35
2018-09-11T02:18:04.186Z,100857.37
2018-09-11T02:20:32.766Z,100846.36
2018-09-11T02:23:01.612Z,100857.27
2018-09-11T02:25:30.138Z,100842.73
2018-09-11T02:27:58.858Z,100839.95
2018-09-11T02:30:27.522Z,100843.13
2018-09-11T02:32:56.173Z,100837.80
2018-09-11T02:35:24.690Z,100842.62
2018-09-11T02:37:53.213Z,100841.90
2018-09-11T02:40:21.918Z,100843.70
2018-09-11T02:42:50.519Z,100841.50
2018-09-11T02:45:22.918Z,100834.98
2018-09-11T02:47:52.720Z,100839.56
2018-09-11T02:50:21.370Z,100820.92
2018-09-11T02:52:50.289Z,100819.12
2018-09-11T02:55:19.014Z,100819.12
2018-09-11T02:57:47.547Z,100814.81
2018-09-11T03:00:16.358Z,100816.75
2018-09-11T03:02:44.915Z,100812.22
2018-09-11T03:05:13.610Z,100809.02
2018-09-11T03:07:42.409Z,100811.69
2018-09-11T03:10:10.974Z,100821.61
2018-09-11T03:12:40.031Z,100815.89
2018-09-11T03:15:08.607Z,100816.86
2018-09-11T03:17:37.662Z,100804.41
2018-09-11T03:20:06.207Z,100793.66
2018-09-11T03:22:35.014Z,100784.91
2018-09-11T03:25:03.618Z,100778.34
2018-09-11T03:27:32.170Z,100783.58
2018-09-11T03:30:00.890Z,100780.56
2018-09-11T03:32:29.372Z,100783.23
2018-09-11T03:34:58.095Z,100776.17
2018-09-11T03:37:26.652Z,100784.16
2018-09-11T03:39:55.466Z,100775.23
2018-09-11T03:42:23.926Z,100772.58
2018-09-11T03:44:52.522Z,100766.50
2018-09-11T03:47:21.111Z,100769.16
2018-09-11T03:49:49.797Z,100756.71
2018-09-11T03:52:18.687Z,100756.71
2018-09-11T03:54:47.254Z,100753.55
2018-09-11T03:57:16.019Z,100765.53
2018-09-11T03:59:44.640Z,100757.54
2018-09-11T04:02:13.548Z,100740.62
2018-09-11T04:04:42.970Z,100734.45
2018-09-11T04:07:11.599Z,100737.97
2018-09-11T04:09:40.106Z,100728.66
2018-09-11T04:12:08.642Z,100737.97
2018-09-11T04:14:38.566Z,100643.30
2018-09-11T04:17:07.293Z,100742.32
2018-09-11T04:19:37.187Z,100732.11
2018-09-11T04:22:06.378Z,100739.77
2018-09-11T04:24:35.422Z,100722.05
2018-09-11T04:27:03.982Z,100740.77
2018-09-11T04:29:32.962Z,100731.34
2018-09-11T04:32:01.646Z,100722.27
2018-09-11T04:34:30.260Z,100719.16
2018-09-11T04:36:58.754Z,100711.93
2018-09-11T04:39:27.458Z,100710.05
2018-09-11T04:41:55.971Z,100708.72
2018-09-11T04:44:24.994Z,100707.75
2018-09-11T04:46:54.342Z,100710.41
2018-09-11T04:49:22.830Z,100722.39
2018-09-11T04:51:52.131Z,100717.06
2018-09-11T04:54:23.210Z,100714.48
2018-09-11T04:56:56.185Z,100708.72
2018-09-11T04:59:33.378Z,100666.01
2018-09-11T05:02:06.623Z,100689.22
2018-09-11T05:04:37.815Z,100705.27
2018-09-11T05:07:06.843Z,100702.61
2018-09-11T05:09:36.842Z,100708.30
2018-09-11T05:12:05.361Z,100719.81
2018-09-11T05:14:34.800Z,100674.74
2018-09-11T05:17:07.326Z,100704.73
2018-09-11T05:19:38.119Z,100709.08
2018-09-11T05:22:12.447Z,100700.11
2018-09-11T05:24:43.178Z,100704.86
2018-09-11T05:27:13.837Z,100706.55
2018-09-11T05:29:43.801Z,100704.25
2018-09-11T05:32:18.111Z,100699.31
2018-09-11T05:34:51.558Z,100698.34
2018-09-11T05:37:33.549Z,100696.14
2018-09-11T05:40:08.366Z,100689.98
2018-09-11T05:42:38.837Z,100681.02
2018-09-11T05:45:07.544Z,100675.47
2018-09-11T05:47:43.742Z,100669.04
2018-09-11T05:50:15.478Z,100670.27
2018-09-11T05:52:47.578Z,100664.81
2018-09-11T05:55:25.595Z,100667.70
2018-09-11T05:58:03.249Z,100671.95
2018-09-11T06:00:37.709Z,100674.14
2018-09-11T06:03:06.608Z,100668.45
2018-09-11T06:05:35.208Z,100671.70
2018-09-11T06:08:04.838Z,100666.38
2018-09-11T06:10:33.374Z,100652.80
2018-09-11T06:13:03.178Z,100614.64
2018-09-11T06:15:31.814Z,100655.46
2018-09-11T06:18:02.904Z,100662.31
2018-09-11T06:20:31.751Z,100658.15
2018-09-11T06:23:00.501Z,100615.14
2018-09-11T06:25:32.948Z,100651.34
2018-09-11T06:28:01.514Z,100649.02
2018-09-11T06:30:30.197Z,100650.56
2018-09-11T06:32:59.029Z,100652.26
2018-09-11T06:35:27.560Z,100648.73
2018-09-11T06:37:56.457Z,100562.63
2018-09-11T06:40:24.974Z,100655.36
2018-09-11T06:42:53.841Z,100653.28
2018-09-11T06:45:25.298Z,100648.93
2018-09-11T06:47:54.120Z,100569.41
2018-09-11T06:50:22.626Z,100636.20
2018-09-11T06:52:51.430Z,100631.61
2018-09-11T06:55:19.950Z,100635.71
2018-09-11T06:57:48.554Z,100636.66
2018-09-11T07:00:17.595Z,100620.88
2018-09-11T07:02:46.091Z,100628.89
2018-09-11T07:05:15.761Z,100559.53
2018-09-11T07:07:44.343Z,100618.00
2018-09-11T07:10:13.170Z,100606.52
2018-09-11T07:12:41.817Z,100611.23
2018-09-11T07:15:12.258Z,100611.59
2018-09-11T07:17:40.848Z,100608.80
2018-09-11T07:20:10.541Z,100586.48
2018-09-11T07:22:39.030Z,100588.56
2018-09-11T07:25:07.779Z,100582.14
2018-09-11T07:27:36.488Z,100586.48
2018-09-11T07:30:05.348Z,100589.03
2018-09-11T07:32:33.990Z,100582.86
2018-09-11T07:35:04.742Z,100581.91
2018-09-11T07:37:33.315Z,100568.17
2018-09-11T07:40:01.965Z,100500.94
2018-09-11T07:42:31.770Z,100570.21
2018-09-11T07:45:00.294Z,100566.84
2018-09-11T07:47:30.638Z,100566.95
2018-09-11T07:49:59.263Z,100560.19
2018-09-11T07:52:29.623Z,100560.44
2018-09-11T07:54:59.091Z,100560.19
2018-09-11T07:57:29.114Z,100557.75
2018-09-11T07:59:57.539Z,100545.72
2018-09-11T08:02:27.650Z,100543.51
2018-09-11T08:04:56.202Z,100545.56
2018-09-11T08:07:25.487Z,100543.18
2018-09-11T08:09:54.736Z,100549.91
2018-09-11T08:12:23.833Z,100540.83
2018-09-11T08:14:52.402Z,100529.08
2018-09-11T08:17:21.084Z,100534.31
2018-09-11T08:19:49.596Z,100538.92
2018-09-11T08:22:19.598Z,100541.19
2018-09-11T08:24:48.434Z,100542.91
2018-09-11T08:27:16.963Z,100539.13
2018-09-11T08:29:46.442Z,100534.17
2018-09-11T08:32:15.121Z,100528.83
2018-09-11T08:34:44.773Z,100540.59
2018-09-11T08:37:13.345Z,100532.01
2018-09-11T08:39:42.247Z,100529.17
2018-09-11T08:42:10.730Z,100528.64
2018-09-11T08:44:40.067Z,100536.11
2018-09-11T08:47:08.551Z,100541.06
2018-09-11T08:49:37.158Z,100536.55
2018-09-11T08:52:06.895Z,100544.80
2018-09-11T08:54:36.435Z,100530.26
2018-09-11T08:57:04.954Z,100526.27
2018-09-11T08:59:33.554Z,100524.95
2018-09-11T09:02:05.846Z,100516.33
2018-09-11T09:04:34.490Z,100525.59
2018-09-11T09:07:03.062Z,100512.95
2018-09-11T09:09:31.677Z,100501.56
2018-09-11T09:12:00.930Z,100485.20
2018-09-11T09:14:29.481Z,100480.86
2018-09-11T09:16:58.570Z,100492.84
2018-09-11T09:19:27.209Z,100484.55
2018-09-11T09:21:58.751Z,100480.36
2018-09-11T09:24:27.362Z,100464.31
2018-09-11T09:26:57.106Z,100422.86
2018-09-11T09:29:25.566Z,100454.99
2018-09-11T09:31:55.322Z,100462.22
2018-09-11T09:34:23.850Z,100445.16
2018-09-11T09:36:53.556Z,100449.37
2018-09-11T09:39:22.114Z,100432.45
2018-09-11T09:41:52.555Z,100427.89
2018-09-11T09:44:21.026Z,100420.17
2018-09-11T09:46:49.681Z,100405.66
2018-09-11T09:49:18.378Z,100385.38
2018-09-11T09:51:47.006Z,100364.34
2018-09-11T09:54:16.361Z,100349.27
2018-09-11T09:56:44.986Z,100347.08
2018-09-11T09:59:14.558Z,100339.11
2018-09-11T10:01:48.718Z,100355.41
2018-09-11T10:04:17.422Z,100363.90
2018-09-11T10:06:46.018Z,100363.81
2018-09-11T10:09:14.587Z,100366.86
2018-09-11T10:11:43.166Z,100359.30
2018-09-11T10:14:13.116Z,100351.73
2018-09-11T10:16:41.639Z,100374.30
2018-09-11T10:19:10.702Z,100274.48
2018-09-11T10:21:39.276Z,100363.68
2018-09-11T10:24:09.014Z,100336.77
2018-09-11T10:26:37.667Z,100313.64
2018-09-11T10:29:07.405Z,100308.88
2018-09-11T10:31:36.554Z,100306.84
2018-09-11T10:34:06.181Z,100304.02
2018-09-11T10:36:34.663Z,100305.11
2018-09-11T10:39:03.950Z,100308.98
2018-09-11T10:41:32.618Z,100316.95
2018-09-11T10:44:01.255Z,100314.65
2018-09-11T10:46:30.018Z,100296.69
2018-09-11T10:48:58.544Z,100297.34
2018-09-11T10:51:30.534Z,100296.95
2018-09-11T10:53:59.266Z,100296.23
2018-09-11T10:56:28.291Z,100310.23
2018-09-11T10:58:56.920Z,100301.03
2018-09-11T11:01:28.902Z,100297.06
2018-09-11T11:03:57.991Z,100292.39
2018-09-11T11:06:26.786Z,100282.62
2018-09-11T11:08:56.843Z,100273.05
2018-09-11T11:11:25.338Z,100269.67
2018-09-11T11:13:54.077Z,100250.85
2018-09-11T11:16:24.386Z,100235.84
2018-09-11T11:18:53.199Z,100235.62
2018-09-11T11:21:23.990Z,100230.30
2018-09-11T11:23:52.641Z,100228.27
2018-09-11T11:26:21.298Z,100212.96
2018-09-11T11:28:51.547Z,100204.88
2018-09-11T11:31:20.839Z,100199.05
2018-09-11T11:33:49.323Z,100181.78
2018-09-11T11:36:19.864Z,100173.45
2018-09-11T11:38:48.864Z,100176.63
2018-09-11T11:41:18.042Z,100127.89
2018-09-11T11:43:47.630Z,100168.45
2018-09-11T11:46:18.927Z,100175.68
2018-09-11T11:48:47.567Z,100182.83
2018-09-11T11:51:16.771Z,100139.62
2018-09-11T11:53:45.272Z,100159.37
2018-09-11T11:56:15.417Z,100154.80
2018-09-11T11:58:44.048Z,100160.23
2018-09-11T12:01:15.393Z,100145.77
2018-09-11T12:03:43.970Z,100134.77
2018-09-11T12:06:13.417Z,100099.84
2018-09-11T12:08:42.028Z,100123.27
2018-09-11T12:11:12.657Z,100114.94
2018-09-11T12:13:41.286Z,100106.72
2018-09-11T12:16:11.157Z,100093.91
2018-09-11T12:18:39.641Z,100083.73
2018-09-11T12:21:09.594Z,100079.76
2018-09-11T12:23:38.689Z,100067.77
2018-09-11T12:26:07.594Z,100024.04
2018-09-11T12:28:36.370Z,100048.61
2018-09-11T12:31:06.661Z,100035.19
2018-09-11T12:33:36.154Z,100044.09
2018-09-11T12:36:05.542Z,100039.81
2018-09-11T12:38:34.082Z,100021.88
2018-09-11T12:41:02.865Z,100030.33
2018-09-11T12:43:31.439Z,100031.66
2018-09-11T12:46:00.283Z,100031.62
2018-09-11T12:48:29.246Z,100032.70
2018-09-11T12:50:57.718Z,100029.78
2018-09-11T12:53:26.602Z,100042.84
2018-09-11T12:55:55.107Z,100036.91
2018-09-11T12:58:25.462Z,99935.91
2018-09-11T13:00:53.984Z,100018.34
2018-09-11T13:03:24.206Z,99949.70
2018-09-11T13:05:52.715Z,100033.33
2018-09-11T13:08:22.148Z,100042.99
2018-09-11T13:10:50.695Z,100021.77
2018-09-11T13:13:19.438Z,100019.91
2018-09-11T13:15:47.899Z,100012.94
2018-09-11T13:18:16.493Z,99998.95
2018-09-11T13:20:45.617Z,99999.14
2018-09-11T13:23:14.162Z,99993.28
2018-09-11T13:25:43.786Z,99993.42
2018-09-11T13:28:12.330Z,99990.49
2018-09-11T13:30:41.881Z,99949.57
2018-09-11T13:33:10.358Z,99995.21
2018-09-11T13:35:39.271Z,99994.33
2018-09-11T13:38:07.815Z,100000.22
2018-09-11T13:40:36.431Z,99994.41
2018-09-11T13:43:06.366Z,100010.75
2018-09-11T13:45:34.915Z,99999.81
2018-09-11T13:48:03.593Z,99998.12
2018-09-11T13:50:32.418Z,99996.42
2018-09-11T13:53:01.394Z,99989.41
2018-09-11T13:55:29.814Z,99994.34
2018-09-11T13:57:58.892Z,100000.98
2018-09-11T14:00:27.438Z,99991.38
2018-09-11T14:02:56.114Z,99990.62
2018-09-11T14:05:24.723Z,99980.25
2018-09-11T14:07:53.375Z,99993.73
2018-09-11T14:10:22.082Z,100000.23
2018-09-11T14:12:50.679Z,99998.24
2018-09-11T14:15:19.626Z,99965.72
2018-09-11T14:17:48.109Z,100000.80
2018-09-11T14:20:16.815Z,99993.34
2018-09-11T14:22:45.298Z,99993.34
2018-09-11T14:25:14.114Z,99983.66
2018-09-11T14:27:42.654Z,99992.14
2018-09-11T14:30:11.137Z,99978.45
2018-09-11T14:32:40.745Z,99996.84
2018-09-11T14:35:09.458Z,99995.02
2018-09-11T14:37:38.751Z,99909.21
2018-09-11T14:40:07.395Z,99977.89
2018-09-11T14:42:36.643Z,99976.34
2018-09-11T14:45:05.246Z,99997.83
2018-09-11T14:47:39.083Z,100006.11
2018-09-11T14:50:07.818Z,99996.56
2018-09-11T14:52:36.717Z,100006.41
2018-09-11T14:55:05.436Z,100014.94
2018-09-11T14:57:34.795Z,100015.80
2018-09-11T15:00:03.636Z,100019.02
2018-09-11T15:02:32.478Z,100016.34
2018-09-11T15:05:00.987Z,100006.87
2018-09-11T15:07:30.004Z,100019.73
2018-09-11T15:09:58.660Z,100020.14
2018-09-11T15:12:27.290Z,100022.59
2018-09-11T15:14:55.907Z,99982.08
2018-09-11T15:17:24.390Z,100041.80
2018-09-11T15:19:53.323Z,100064.45
2018-09-11T15:22:21.825Z,100054.41
2018-09-11T15:24:51.761Z,99941.72
2018-09-11T15:27:20.239Z,100048.88
2018-09-11T15:29:48.984Z,100072.73
2018-09-11T15:32:18.285Z,100087.77
2018-09-11T15:34:46.967Z,100080.12
2018-09-11T15:37:15.468Z,100072.73
2018-09-11T15:39:44.093Z,100083.64
2018-09-11T15:42:12.658Z,100083.39
2018-09-11T15:44:41.302Z,100089.61
2018-09-11T15:47:10.506Z,100072.77
2018-09-11T15:49:38.939Z,100077.03
2018-09-11T15:52:07.739Z,100077.88
2018-09-11T15:54:36.352Z,100079.91
2018-09-11T15:57:04.983Z,100086.05
2018-09-11T15:59:33.546Z,100081.97
2018-09-11T16:02:02.941Z,100081.10
2018-09-11T16:04:31.604Z,99997.22
2018-09-11T16:07:00.300Z,100082.44
2018-09-11T16:09:29.086Z,100079.77
2018-09-11T16:11:57.658Z,100072.13
2018-09-11T16:14:26.338Z,100085.19
2018-09-11T16:16:54.927Z,100073.11
2018-09-11T16:19:23.482Z,100081.10
2018-09-11T16:21:52.505Z,100083.52
2018-09-11T16:24:21.008Z,100095.03
2018-09-11T16:26:49.818Z,100037.84
2018-09-11T16:29:18.357Z,100106.67
2018-09-11T16:31:47.097Z,100097.69
2018-09-11T16:34:15.725Z,100101.08
2018-09-11T16:36:44.432Z,100098.90
2018-09-11T16:39:13.641Z,100106.28
2018-09-11T16:41:42.547Z,100110.38
2018-09-11T16:44:11.094Z,100107.88
2018-09-11T16:46:39.793Z,100116.17
2018-09-11T16:49:09.206Z,100094.25
2018-09-11T16:51:37.998Z,100108.44
2018-09-11T16:54:06.949Z,100113.52
2018-09-11T16:56:35.469Z,100116.81
2018-09-11T16:59:04.303Z,100121.76
2018-09-11T17:01:32.790Z,100120.68
2018-09-11T17:04:01.529Z,100108.81
2018-09-11T17:06:30.086Z,100119.34
2018-09-11T17:08:58.575Z,100117.89
2018-09-11T17:11:27.246Z,100107.48
2018-09-11T17:13:55.742Z,100107.84
2018-09-11T17:16:24.740Z,100115.22
2018-09-11T17:18:54.268Z,100118.23
2018-09-11T17:21:23.042Z,100113.16
2018-09-11T17:23:51.569Z,100129.15
2018-09-11T17:26:20.246Z,100114.41
2018-09-11T17:28:49.664Z,100116.69
2018-09-11T17:31:18.252Z,100120.81
2018-09-11T17:33:46.874Z,100117.20
2018-09-11T17:36:15.417Z,100121.20
2018-09-11T17:38:44.716Z,100127.16
2018-09-11T17:41:13.286Z,100119.78
2018-09-11T17:43:42.291Z,100121.27
2018-09-11T17:46:10.803Z,100133.13
2018-09-11T17:48:39.943Z,100139.09
2018-09-11T17:51:08.514Z,100141.97
2018-09-11T17:53:37.221Z,100147.77
2018-09-11T17:56:05.851Z,100150.09
2018-09-11T17:58:34.576Z,100140.67
2018-09-11T18:01:03.255Z,100139.34
2018-09-11T18:03:31.842Z,100141.18
2018-09-11T18:06:00.362Z,100139.84
2018-09-11T18:08:28.864Z,100147.84
2018-09-11T18:10:57.729Z,100152.53
2018-09-11T18:13:26.225Z,100149.16
2018-09-11T18:15:54.834Z,100158.70
2018-09-11T18:18:23.394Z,100168.89
2018-09-11T18:20:52.175Z,100168.25
2018-09-11T18:23:20.759Z,100181.57
2018-09-11T18:25:49.602Z,100191.27
2018-09-11T18:28:18.283Z,100171.22
2018-09-11T18:30:46.838Z,100196.22
2018-09-11T18:33:15.742Z,100201.92
2018-09-11T18:35:44.883Z,100202.63
2018-09-11T18:38:13.630Z,100203.95
2018-09-11T18:40:42.263Z,100206.87
2018-09-11T18:43:10.859Z,100224.06
2018-09-11T18:45:39.407Z,100222.09
2018-09-11T18:48:07.919Z,100225.27
2018-09-11T18:50:36.730Z,100230.47
2018-09-11T18:53:05.350Z,100246.07
2018-09-11T18:55:33.944Z,100255.39
2018-09-11T18:58:02.468Z,100269.22
2018-09-11T19:00:31.932Z,100254.31
2018-09-11T19:03:01.723Z,100252.38
2018-09-11T19:05:30.860Z,100258.30
2018-09-11T19:08:00.079Z,100248.63
2018-09-11T19:10:29.081Z,100249.37
2018-09-11T19:12:57.573Z,100260.02
2018-09-11T19:15:26.170Z,100260.62
2018-09-11T19:17:54.895Z,100265.09
2018-09-11T19:20:23.529Z,100255.78
2018-09-11T19:22:52.170Z,100271.13
2018-09-11T19:25:20.630Z,100269.09
2018-09-11T19:27:49.250Z,100286.66
2018-09-11T19:30:17.759Z,100283.25
2018-09-11T19:32:46.525Z,100284.23
2018-09-11T19:35:15.104Z,100284.36
2018-09-11T19:37:43.643Z,100286.77
2018-09-11T19:40:12.362Z,100281.44
2018-09-11T19:42:40.846Z,100306.73
2018-09-11T19:45:10.434Z,100308.45
2018-09-11T19:47:38.931Z,100308.58
2018-09-11T19:50:08.099Z,100321.50
2018-09-11T19:52:36.534Z,100321.03
2018-09-11T19:55:05.635Z,100314.38
2018-09-11T19:57:34.191Z,100326.60
2018-09-11T20:00:02.803Z,100315.45
2018-09-11T20:02:31.945Z,100333.61
2018-09-11T20:05:00.619Z,100344.16
2018-09-11T20:07:29.316Z,100309.98
2018-09-11T20:09:58.328Z,100345.73
2018-09-11T20:12:27.244Z,100294.16
2018-09-11T20:14:55.802Z,100348.39
2018-09-11T20:17:25.288Z,100295.96
2018-09-11T20:19:53.932Z,100354.58
2018-09-11T20:22:22.630Z,100347.92
2018-09-11T20:24:51.163Z,100348.13
2018-09-11T20:27:19.886Z,100348.38
2018-09-11T20:29:48.510Z,100345.71
2018-09-11T20:32:16.975Z,100358.28
2018-09-11T20:34:45.746Z,100355.61
2018-09-11T20:37:14.344Z,100366.77
2018-09-11T20:39:43.222Z,100361.45
2018-09-11T20:42:11.702Z,100372.09
2018-09-11T20:44:40.224Z,100377.77
2018-09-11T20:47:08.830Z,100368.92
2018-09-11T20:49:37.425Z,100372.33
2018-09-11T20:52:06.622Z,100378.60
2018-09-11T20:54:35.199Z,100368.93
2018-09-11T20:57:03.898Z,100368.58
2018-09-11T20:59:32.991Z,100365.91
2018-09-11T21:02:01.878Z,100368.19
2018-09-11T21:04:30.390Z,100354.41
2018-09-11T21:06:59.014Z,100365.53
2018-09-11T21:09:27.514Z,100380.56
2018-09-11T21:11:56.070Z,100375.94
2018-09-11T21:14:24.845Z,100385.64
2018-09-11T21:16:53.528Z,100389.64
2018-09-11T21:19:22.230Z,100387.56
2018-09-11T21:21:50.717Z,100383.10
2018-09-11T21:24:19.230Z,100403.42
2018-09-11T21:26:48.004Z,100386.59
2018-09-11T21:29:16.596Z,100410.43
2018-09-11T21:31:45.351Z,100406.95
2018-09-11T21:34:13.826Z,100402.21
2018-09-11T21:36:42.538Z,100414.42
2018-09-11T21:39:12.179Z,100414.07
2018-09-11T21:41:40.886Z,100421.31
2018-09-11T21:44:09.506Z,100425.66
2018-09-11T21:46:38.270Z,100379.40
2018-09-11T21:51:42.966Z,100427.97
2018-09-11T21:54:11.727Z,100426.28
2018-09-11T21:56:40.254Z,100430.63
2018-09-11T21:59:08.883Z,100427.97
2018-09-11T22:01:42.475Z,100426.28
2018-09-11T22:04:11.106Z,100420.34
2018-09-11T22:06:39.638Z,100413.80
2018-09-11T22:09:09.886Z,100426.99
2018-09-11T22:11:38.508Z,100421.16
2018-09-11T22:14:07.442Z,100435.09
2018-09-11T22:16:36.166Z,100379.85
2018-09-11T22:19:04.878Z,100434.73
2018-09-11T22:21:33.690Z,100439.56
2018-09-11T22:24:02.409Z,100441.16
2018-09-11T22:26:30.978Z,100430.87
2018-09-11T22:28:59.662Z,100427.34
2018-09-11T22:31:28.769Z,100382.64
2018-09-11T22:33:57.369Z,100432.08
2018-09-11T22:36:26.446Z,100429.65
2018-09-11T22:38:55.004Z,100439.55
2018-09-11T22:41:23.761Z,100433.48
2018-09-11T22:43:52.682Z,100421.90
2018-09-11T22:46:21.630Z,100422.84
2018-09-11T22:48:50.264Z,100421.90
2018-09-11T22:51:18.872Z,100429.50
2018-09-11T22:53:47.386Z,100428.91
2018-09-11T22:56:15.854Z,100419.23
2018-09-11T22:58:44.625Z,100430.34
2018-09-11T23:01:13.382Z,100419.31
2018-09-11T23:03:42.128Z,100433.59
2018-09-11T23:06:10.629Z,100425.48
2018-09-11T23:08:39.170Z,100427.29
2018-09-11T23:11:07.834Z,100433.70
2018-09-11T23:13:36.482Z,100451.23
2018-09-11T23:16:05.161Z,100430.53
2018-09-11T23:18:33.749Z,100429.59
2018-09-11T23:21:02.362Z,100445.55
2018-09-11T23:23:30.838Z,100443.48
2018-09-11T23:25:59.470Z,100439.38
2018-09-11T23:28:28.126Z,100437.57
2018-09-11T23:30:56.766Z,100448.92
2018-09-11T23:33:25.478Z,100443.96
2018-09-11T23:35:54.052Z,100436.71
2018-09-11T23:38:22.726Z,100446.27
2018-09-11T23:40:51.213Z,100424.86
2018-09-11T23:43:19.969Z,100406.70
2018-09-11T23:45:48.572Z,100414.80
2018-09-11T23:48:17.173Z,100408.53
2018-09-11T23:50:45.646Z,100409.48
2018-09-11T23:53:14.243Z,100417.69
2018-09-11T23:55:42.933Z,100378.17
2018-09-11T23:58:11.587Z,100415.03
